Time;durP1;ratioP1;P1;durP2;ratioP2;P2;SDS_P1;SDS_P2;PMS_P1;PMS_P2;Temp;Humidity;BMP_temperature;BMP_pressure;BME280_temperature;BME280_humidity;BME280_pressure;Samples;Min_cycle;Max_cycle;Signal;HPM_P1;HPM_P2
2021/08/29 00:00:39;;;;;;;11.50;10.40;;;12.70;99.90;;;;;;4969429;28;20228;-55
2021/08/29 00:03:05;;;;;;;12.50;11.20;;;12.70;99.90;;;;;;4969468;28;20256;-55
2021/08/29 00:05:30;;;;;;;11.70;10.60;;;12.70;99.90;;;;;;4970124;28;20197;-52
2021/08/29 00:07:56;;;;;;;12.33;11.13;;;12.70;99.90;;;;;;4968695;28;20919;-50
2021/08/29 00:10:21;;;;;;;12.90;11.70;;;12.70;99.90;;;;;;4968331;28;20557;-53
2021/08/29 00:12:47;;;;;;;12.03;10.83;;;12.80;99.90;;;;;;4969540;28;20217;-52
2021/08/29 00:15:12;;;;;;;12.33;11.13;;;12.70;99.90;;;;;;4970538;28;20203;-53
2021/08/29 00:17:38;;;;;;;10.93;9.90;;;12.80;99.90;;;;;;4957980;28;20196;-52
2021/08/29 00:20:05;;;;;;;12.10;10.80;;;12.80;99.90;;;;;;4963259;28;20217;-52
2021/08/29 00:22:30;;;;;;;11.47;10.37;;;12.80;99.90;;;;;;4969778;28;20552;-56
2021/08/29 00:24:56;;;;;;;11.10;10.00;;;12.80;99.90;;;;;;4968023;28;20448;-54
2021/08/29 00:27:21;;;;;;;11.07;10.07;;;12.80;99.90;;;;;;4959857;28;20255;-54
2021/08/29 00:29:47;;;;;;;11.67;10.50;;;12.80;99.90;;;;;;4969739;28;20197;-53
2021/08/29 00:32:13;;;;;;;12.07;10.80;;;12.80;99.90;;;;;;4969417;28;20533;-55
2021/08/29 00:34:39;;;;;;;11.40;9.90;;;12.70;99.90;;;;;;4968312;28;20503;-54
2021/08/29 00:37:04;;;;;;;10.73;9.53;;;12.80;99.90;;;;;;4969855;28;20427;-56
2021/08/29 00:39:30;;;;;;;11.20;10.03;;;12.80;99.90;;;;;;4968661;28;20188;-54
2021/08/29 00:41:55;;;;;;;10.67;9.67;;;12.80;99.90;;;;;;4970480;28;20196;-55
2021/08/29 00:44:21;;;;;;;11.13;10.03;;;12.80;99.90;;;;;;4967804;28;20187;-55
2021/08/29 00:46:47;;;;;;;9.57;8.70;;;12.80;99.90;;;;;;4970392;28;20255;-56
2021/08/29 00:49:14;;;;;;;10.90;9.90;;;12.80;99.90;;;;;;4968088;28;20192;-52
2021/08/29 00:51:40;;;;;;;10.40;9.40;;;12.80;99.90;;;;;;4970185;28;20431;-54
2021/08/29 00:54:05;;;;;;;10.37;9.40;;;12.80;99.90;;;;;;4968149;28;20441;-54
2021/08/29 00:56:31;;;;;;;9.33;8.53;;;12.80;99.90;;;;;;4970275;28;20247;-55
2021/08/29 00:58:56;;;;;;;10.00;9.10;;;12.80;99.90;;;;;;4967990;28;20263;-55
2021/08/29 01:01:34;;;;;;;11.00;10.00;;;12.80;99.90;;;;;;4970179;28;20523;-54
2021/08/29 01:04:05;;;;;;;10.80;9.70;;;12.80;99.90;;;;;;4965348;28;20284;-52
2021/08/29 01:06:44;;;;;;;10.67;9.57;;;12.80;99.90;;;;;;4969947;28;20959;-55
2021/08/29 01:09:11;;;;;;;10.90;9.43;;;12.80;99.90;;;;;;4969155;28;20440;-51
2021/08/29 01:11:39;;;;;;;10.20;9.03;;;12.80;99.90;;;;;;4971654;28;20927;-56
2021/08/29 01:14:09;;;;;;;11.10;9.90;;;12.80;99.90;;;;;;4972704;28;20751;-58
2021/08/29 01:16:36;;;;;;;11.23;10.10;;;12.80;99.90;;;;;;4973833;28;20790;-53
2021/08/29 01:19:14;;;;;;;10.20;9.30;;;12.80;99.90;;;;;;4972899;28;20449;-52
2021/08/29 01:21:42;;;;;;;9.80;8.90;;;12.80;99.90;;;;;;4972841;28;20806;-51
2021/08/29 01:24:12;;;;;;;9.97;9.07;;;12.80;99.90;;;;;;4972042;28;20444;-53
2021/08/29 01:26:43;;;;;;;10.80;9.77;;;12.80;99.90;;;;;;4973003;28;20502;-55
2021/08/29 01:29:10;;;;;;;10.13;9.10;;;12.90;99.90;;;;;;4972053;28;20450;-55
2021/08/29 01:31:38;;;;;;;10.77;9.57;;;12.90;99.90;;;;;;4972541;28;20487;-53
2021/08/29 01:34:07;;;;;;;9.23;8.23;;;12.90;99.90;;;;;;4966797;28;20844;-53
2021/08/29 01:36:36;;;;;;;12.47;9.20;;;12.90;99.90;;;;;;4971588;28;20467;-56
2021/08/29 01:39:03;;;;;;;10.60;9.60;;;12.80;99.90;;;;;;4968236;28;20922;-52
2021/08/29 01:41:30;;;;;;;10.63;9.60;;;12.80;99.90;;;;;;4973307;28;21072;-50
2021/08/29 01:43:56;;;;;;;10.10;9.10;;;12.80;99.90;;;;;;4963321;28;20954;-52
2021/08/29 01:46:23;;;;;;;9.70;8.80;;;12.80;99.90;;;;;;4973472;28;20495;-54
2021/08/29 01:48:49;;;;;;;9.63;8.63;;;12.80;99.90;;;;;;4971114;28;20448;-56
2021/08/29 01:51:15;;;;;;;10.00;8.80;;;12.70;99.90;;;;;;4973011;28;20930;-48
2021/08/29 01:53:41;;;;;;;9.60;8.67;;;12.70;99.90;;;;;;4970454;28;20268;-55
2021/08/29 01:56:07;;;;;;;9.27;8.37;;;12.70;99.90;;;;;;4974819;28;20428;-52
2021/08/29 01:58:33;;;;;;;8.80;8.00;;;12.60;99.90;;;;;;4973770;28;20188;-52
2021/08/29 02:01:08;;;;;;;9.00;8.13;;;12.60;99.90;;;;;;4973429;28;20574;-49
2021/08/29 02:03:34;;;;;;;10.80;9.10;;;12.60;99.90;;;;;;4969459;28;20918;-52
2021/08/29 02:06:20;;;;;;;10.17;9.17;;;12.60;99.90;;;;;;4973454;28;20450;-52
2021/08/29 02:08:54;;;;;;;9.60;8.60;;;12.60;99.90;;;;;;4972452;28;20604;-51
2021/08/29 02:11:21;;;;;;;10.70;9.53;;;12.50;99.90;;;;;;4972432;28;20448;-53
2021/08/29 02:13:52;;;;;;;9.40;8.50;;;12.50;99.90;;;;;;4988588;28;20825;-50
2021/08/29 02:16:20;;;;;;;9.30;8.40;;;12.50;99.90;;;;;;4972180;28;20463;-52
2021/08/29 02:18:50;;;;;;;9.27;8.30;;;12.50;99.90;;;;;;4970958;28;20440;-53
2021/08/29 02:21:17;;;;;;;9.33;8.30;;;12.40;99.90;;;;;;4973703;28;20439;-52
2021/08/29 02:23:45;;;;;;;10.47;8.30;;;12.40;99.90;;;;;;4972492;28;20607;-51
2021/08/29 02:26:11;;;;;;;9.13;8.20;;;12.40;99.90;;;;;;4974503;28;20538;-53
2021/08/29 02:28:37;;;;;;;9.30;8.13;;;12.40;99.90;;;;;;4972971;28;20479;-52
2021/08/29 02:31:03;;;;;;;9.33;8.40;;;12.40;99.90;;;;;;4972451;28;20460;-54
2021/08/29 02:33:29;;;;;;;9.57;8.67;;;12.40;99.90;;;;;;4973281;28;20542;-57
2021/08/29 02:35:57;;;;;;;10.07;8.97;;;12.30;99.90;;;;;;4972437;28;20444;-55
2021/08/29 02:38:23;;;;;;;9.77;8.63;;;12.40;99.90;;;;;;4959800;28;20445;-56
2021/08/29 02:40:49;;;;;;;9.87;8.97;;;12.30;99.90;;;;;;4972439;28;20443;-56
2021/08/29 02:43:17;;;;;;;9.57;8.57;;;12.30;99.90;;;;;;4972222;28;20459;-54
2021/08/29 02:45:44;;;;;;;10.20;9.20;;;12.30;99.90;;;;;;4972982;28;20567;-54
2021/08/29 02:48:09;;;;;;;9.87;8.93;;;12.30;99.90;;;;;;4972933;28;20452;-52
2021/08/29 02:50:36;;;;;;;10.37;8.83;;;12.30;99.90;;;;;;4971988;28;20458;-52
2021/08/29 02:53:03;;;;;;;10.00;9.00;;;12.20;99.90;;;;;;4973448;28;20762;-56
2021/08/29 02:55:30;;;;;;;9.73;8.60;;;12.30;99.90;;;;;;4970651;28;20459;-54
2021/08/29 02:58:06;;;;;;;9.17;8.27;;;12.30;99.90;;;;;;4971963;28;20927;-56
2021/08/29 03:00:32;;;;;;;9.77;8.80;;;12.30;99.90;;;;;;4969431;28;20817;-57
2021/08/29 03:02:57;;;;;;;9.50;8.60;;;12.30;99.90;;;;;;4971797;28;20449;-54
2021/08/29 03:05:24;;;;;;;11.13;8.60;;;12.30;99.90;;;;;;4969629;28;20193;-53
2021/08/29 03:07:50;;;;;;;9.60;8.70;;;12.30;99.90;;;;;;4970679;28;20616;-56
2021/08/29 03:10:17;;;;;;;10.03;9.03;;;12.30;99.90;;;;;;4970409;28;20530;-54
2021/08/29 03:12:43;;;;;;;10.67;9.57;;;12.30;99.90;;;;;;4970060;28;20511;-55
2021/08/29 03:15:11;;;;;;;9.47;8.60;;;12.30;99.90;;;;;;4969524;28;20440;-53
2021/08/29 03:17:37;;;;;;;9.87;8.87;;;12.30;99.90;;;;;;4971468;28;20918;-56
2021/08/29 03:20:07;;;;;;;9.53;8.60;;;12.30;99.90;;;;;;4970610;28;20448;-56
2021/08/29 03:22:33;;;;;;;10.97;9.87;;;12.30;99.90;;;;;;4969922;28;20189;-53
2021/08/29 03:24:59;;;;;;;10.93;9.83;;;12.30;99.90;;;;;;4969098;28;20487;-53
2021/08/29 03:27:25;;;;;;;10.43;9.43;;;12.30;99.90;;;;;;4970219;28;20975;-55
2021/08/29 03:29:50;;;;;;;9.20;8.30;;;12.20;99.90;;;;;;4970383;28;20200;-57
2021/08/29 03:32:18;;;;;;;11.37;9.93;;;12.20;99.90;;;;;;4970273;28;20209;-54
2021/08/29 03:34:43;;;;;;;10.67;9.57;;;12.20;99.90;;;;;;4970201;28;20212;-55
2021/08/29 03:37:11;;;;;;;10.37;8.63;;;12.20;99.90;;;;;;4965129;28;20469;-56
2021/08/29 03:39:37;;;;;;;11.73;9.17;;;12.30;99.90;;;;;;4966621;28;20185;-56
2021/08/29 03:42:03;;;;;;;10.80;9.70;;;12.30;99.90;;;;;;4971011;28;20432;-56
2021/08/29 03:44:29;;;;;;;10.33;8.70;;;12.30;99.90;;;;;;4969723;28;20189;-55
2021/08/29 03:46:54;;;;;;;9.70;8.70;;;12.40;99.90;;;;;;4971207;28;21145;-56
2021/08/29 03:49:20;;;;;;;10.63;9.30;;;12.40;99.90;;;;;;4969349;28;20458;-55
2021/08/29 03:51:46;;;;;;;10.53;9.53;;;12.30;99.90;;;;;;4970608;28;20201;-54
2021/08/29 03:54:13;;;;;;;10.60;9.57;;;12.40;99.90;;;;;;4969659;28;20189;-56
2021/08/29 03:56:39;;;;;;;10.57;9.47;;;12.40;99.90;;;;;;4985501;28;20420;-56
2021/08/29 03:59:05;;;;;;;10.93;9.83;;;12.40;99.90;;;;;;4969851;28;20441;-58
2021/08/29 04:01:31;;;;;;;11.17;10.10;;;12.40;99.90;;;;;;4969624;28;20716;-56
2021/08/29 04:03:58;;;;;;;10.80;9.77;;;12.40;99.90;;;;;;4970177;28;20468;-51
2021/08/29 04:06:29;;;;;;;9.90;9.00;;;12.40;99.90;;;;;;4969190;28;20543;-54
2021/08/29 04:08:56;;;;;;;11.13;8.67;;;12.40;99.90;;;;;;4970853;28;20931;-56
2021/08/29 04:11:29;;;;;;;10.63;9.50;;;12.40;99.90;;;;;;4968169;28;20447;-57
2021/08/29 04:13:55;;;;;;;9.80;8.67;;;12.40;99.90;;;;;;4978868;28;20480;-53
2021/08/29 04:16:22;;;;;;;8.83;7.93;;;12.40;99.90;;;;;;4969072;28;20459;-56
2021/08/29 04:18:48;;;;;;;9.27;8.37;;;12.40;99.90;;;;;;4969687;28;20440;-53
2021/08/29 04:21:15;;;;;;;9.50;8.60;;;12.40;99.90;;;;;;4971673;28;20801;-60
2021/08/29 04:23:41;;;;;;;9.50;8.50;;;12.40;99.90;;;;;;4984836;28;20539;-55
2021/08/29 04:26:08;;;;;;;9.50;8.60;;;12.40;99.90;;;;;;4969643;28;20997;-56
2021/08/29 04:28:34;;;;;;;10.17;9.17;;;12.40;99.90;;;;;;4958963;28;20775;-56
2021/08/29 04:31:01;;;;;;;9.57;8.67;;;12.40;99.90;;;;;;4969758;28;21006;-57
2021/08/29 04:33:27;;;;;;;9.47;8.57;;;12.30;99.90;;;;;;4970782;28;21022;-55
2021/08/29 04:35:53;;;;;;;11.60;10.30;;;12.40;99.90;;;;;;4969841;28;20611;-55
2021/08/29 04:38:19;;;;;;;10.57;9.50;;;12.40;99.90;;;;;;4969467;28;20193;-57
2021/08/29 04:40:45;;;;;;;11.30;10.00;;;12.40;99.90;;;;;;4969420;28;20459;-56
2021/08/29 04:43:10;;;;;;;11.03;9.70;;;12.40;99.90;;;;;;4969294;28;20510;-55
2021/08/29 04:45:36;;;;;;;14.87;12.13;;;12.50;99.90;;;;;;4968357;28;20525;-53
2021/08/29 04:48:01;;;;;;;13.63;11.77;;;12.50;99.90;;;;;;4971894;28;20200;-51
2021/08/29 04:50:29;;;;;;;14.90;13.37;;;12.60;99.90;;;;;;4974245;28;20196;-56
2021/08/29 04:52:55;;;;;;;15.33;13.57;;;12.60;99.90;;;;;;4972814;28;20216;-53
2021/08/29 04:55:20;;;;;;;15.70;13.63;;;12.70;99.90;;;;;;4974024;28;20416;-54
2021/08/29 04:57:46;;;;;;;17.03;14.10;;;12.70;99.90;;;;;;4972332;28;20726;-54
2021/08/29 05:00:12;;;;;;;17.40;14.63;;;12.80;99.90;;;;;;4970544;28;20906;-53
2021/08/29 05:02:37;;;;;;;15.70;14.00;;;12.90;99.90;;;;;;4972850;28;20251;-55
2021/08/29 05:05:03;;;;;;;19.63;15.50;;;12.90;99.90;;;;;;4974234;28;20515;-53
2021/08/29 05:07:29;;;;;;;19.70;15.67;;;13.00;99.90;;;;;;4972220;28;20196;-56
2021/08/29 05:09:54;;;;;;;20.80;15.77;;;13.00;99.90;;;;;;4973156;28;20783;-55
2021/08/29 05:12:20;;;;;;;19.17;15.10;;;13.10;99.90;;;;;;4971472;28;20208;-54
2021/08/29 05:14:45;;;;;;;20.67;15.40;;;13.10;99.90;;;;;;4972567;28;20200;-55
2021/08/29 05:17:11;;;;;;;19.13;14.43;;;13.20;99.90;;;;;;4970731;28;20184;-54
2021/08/29 05:19:37;;;;;;;19.07;15.53;;;13.20;99.90;;;;;;4971824;28;20181;-55
2021/08/29 05:22:02;;;;;;;18.23;15.07;;;13.30;99.90;;;;;;4970872;28;20235;-54
2021/08/29 05:24:28;;;;;;;19.17;15.50;;;13.30;99.90;;;;;;4972780;28;20196;-52
2021/08/29 05:26:53;;;;;;;16.13;13.87;;;13.30;99.90;;;;;;4972327;28;20598;-53
2021/08/29 05:29:19;;;;;;;20.00;14.97;;;13.30;99.90;;;;;;4972684;28;20189;-54
2021/08/29 05:31:44;;;;;;;17.37;14.10;;;13.30;99.90;;;;;;4971555;28;20583;-53
2021/08/29 05:34:10;;;;;;;17.00;13.83;;;13.50;99.90;;;;;;4973814;28;20185;-55
2021/08/29 05:36:36;;;;;;;14.93;13.33;;;13.40;99.90;;;;;;4971719;28;20290;-51
2021/08/29 05:39:01;;;;;;;18.57;13.83;;;13.40;99.90;;;;;;4972894;28;20185;-56
2021/08/29 05:41:27;;;;;;;16.50;13.70;;;13.40;99.90;;;;;;4971649;28;20674;-54
2021/08/29 05:43:52;;;;;;;17.40;14.33;;;13.40;99.90;;;;;;4973338;28;20572;-52
2021/08/29 05:46:18;;;;;;;15.13;12.63;;;13.50;99.90;;;;;;4971751;28;20188;-56
2021/08/29 05:48:45;;;;;;;16.50;13.60;;;13.40;99.90;;;;;;4972922;28;20560;-55
2021/08/29 05:51:11;;;;;;;18.03;12.80;;;13.50;99.90;;;;;;4969370;28;20200;-56
2021/08/29 05:53:36;;;;;;;16.27;13.40;;;13.40;99.90;;;;;;4971925;28;20499;-55
2021/08/29 05:56:02;;;;;;;15.60;13.17;;;13.40;99.90;;;;;;4970674;28;20658;-56
2021/08/29 05:58:27;;;;;;;18.03;13.90;;;13.50;99.90;;;;;;4971831;28;20243;-54
2021/08/29 06:00:54;;;;;;;16.03;13.60;;;13.50;99.90;;;;;;4970314;28;20224;-55
2021/08/29 06:03:19;;;;;;;15.20;12.20;;;13.60;99.90;;;;;;4972235;28;20281;-55
2021/08/29 06:05:45;;;;;;;17.07;13.23;;;13.60;99.90;;;;;;4972285;28;20942;-54
2021/08/29 06:08:11;;;;;;;16.37;12.60;;;13.80;99.90;;;;;;4972244;28;20189;-55
2021/08/29 06:10:36;;;;;;;17.50;13.60;;;13.80;99.90;;;;;;4964676;28;20181;-55
2021/08/29 06:13:02;;;;;;;15.50;12.53;;;13.80;99.90;;;;;;4963182;28;20243;-57
2021/08/29 06:15:27;;;;;;;16.83;12.93;;;13.90;99.90;;;;;;4971473;28;20189;-55
2021/08/29 06:17:53;;;;;;;15.20;12.30;;;14.00;99.90;;;;;;4972760;28;20300;-53
2021/08/29 06:20:18;;;;;;;14.33;12.07;;;14.10;99.90;;;;;;4970112;28;20580;-54
2021/08/29 06:22:44;;;;;;;16.27;12.60;;;14.10;99.90;;;;;;4970548;28;20300;-55
2021/08/29 06:25:09;;;;;;;13.60;12.10;;;14.10;99.90;;;;;;4971623;28;20196;-56
2021/08/29 06:27:35;;;;;;;17.47;12.27;;;14.10;99.90;;;;;;4969454;28;20197;-53
2021/08/29 06:30:00;;;;;;;15.20;12.60;;;14.10;99.90;;;;;;4969157;28;20559;-55
2021/08/29 06:32:26;;;;;;;14.83;11.90;;;14.30;99.90;;;;;;4971710;28;20957;-52
2021/08/29 06:34:51;;;;;;;15.83;11.73;;;14.40;99.90;;;;;;4972548;28;20316;-56
2021/08/29 06:37:17;;;;;;;14.70;11.97;;;14.60;99.90;;;;;;4970330;28;20192;-54
2021/08/29 06:39:42;;;;;;;13.03;11.63;;;14.70;99.90;;;;;;4971341;28;20189;-59
2021/08/29 06:42:08;;;;;;;11.97;10.70;;;14.80;99.90;;;;;;4971799;28;20375;-54
2021/08/29 06:44:34;;;;;;;12.57;10.23;;;14.90;99.90;;;;;;4969345;28;20276;-55
2021/08/29 06:46:59;;;;;;;13.40;10.60;;;15.00;99.90;;;;;;4968933;28;20197;-55
2021/08/29 06:49:25;;;;;;;11.67;9.93;;;15.20;99.90;;;;;;4970571;28;20217;-56
2021/08/29 06:51:50;;;;;;;11.67;10.37;;;15.20;99.90;;;;;;4969649;28;20189;-56
2021/08/29 06:54:16;;;;;;;12.20;10.10;;;15.40;99.90;;;;;;4969319;28;20240;-53
2021/08/29 06:56:41;;;;;;;10.53;8.80;;;15.50;99.90;;;;;;4971208;28;20220;-58
2021/08/29 06:59:07;;;;;;;10.80;9.70;;;15.70;99.90;;;;;;4968512;28;20302;-55
2021/08/29 07:01:32;;;;;;;10.70;9.37;;;15.90;99.90;;;;;;4970900;28;20181;-54
2021/08/29 07:03:58;;;;;;;11.00;9.30;;;16.00;99.90;;;;;;4970711;28;20194;-59
2021/08/29 07:06:23;;;;;;;10.63;9.17;;;16.10;99.90;;;;;;4961290;28;20292;-56
2021/08/29 07:08:49;;;;;;;11.40;9.20;;;16.10;99.90;;;;;;4971532;28;20229;-54
2021/08/29 07:11:14;;;;;;;10.20;9.10;;;16.10;99.90;;;;;;4969281;28;20227;-52
2021/08/29 07:13:40;;;;;;;9.93;8.70;;;16.30;99.90;;;;;;4970596;28;20255;-54
2021/08/29 07:16:06;;;;;;;10.67;9.20;;;16.30;99.90;;;;;;4969238;28;20216;-57
2021/08/29 07:18:31;;;;;;;11.00;8.90;;;16.30;99.90;;;;;;4968983;28;20658;-58
2021/08/29 07:20:57;;;;;;;10.93;8.80;;;16.30;99.90;;;;;;4967939;28;20232;-57
2021/08/29 07:23:23;;;;;;;9.40;8.40;;;16.30;99.90;;;;;;4969718;28;20185;-56
2021/08/29 07:25:49;;;;;;;10.23;8.80;;;16.40;99.90;;;;;;4960069;28;20183;-54
2021/08/29 07:28:14;;;;;;;12.93;10.50;;;16.50;99.90;;;;;;4970702;28;20431;-58
2021/08/29 07:30:40;;;;;;;9.07;8.20;;;16.60;99.90;;;;;;4964110;28;20263;-58
2021/08/29 07:33:06;;;;;;;13.03;10.63;;;16.70;99.90;;;;;;4958369;28;20221;-55
2021/08/29 07:35:31;;;;;;;10.03;8.50;;;16.70;99.90;;;;;;4955664;28;21090;-57
2021/08/29 07:37:57;;;;;;;10.13;9.00;;;16.90;99.90;;;;;;4958230;28;20194;-53
2021/08/29 07:40:22;;;;;;;11.17;9.03;;;16.90;99.90;;;;;;4958188;28;20212;-53
2021/08/29 07:42:48;;;;;;;10.10;9.00;;;17.20;99.90;;;;;;4960335;28;20183;-56
2021/08/29 07:45:14;;;;;;;11.13;8.53;;;17.30;99.90;;;;;;4959578;28;20189;-53
2021/08/29 07:47:40;;;;;;;11.83;9.70;;;17.50;99.90;;;;;;4962120;28;20239;-58
2021/08/29 07:50:06;;;;;;;11.83;9.70;;;17.80;99.90;;;;;;4959677;28;20448;-60
2021/08/29 07:52:32;;;;;;;10.97;9.47;;;17.90;99.90;;;;;;4960651;28;20266;-59
2021/08/29 07:54:57;;;;;;;9.40;8.50;;;18.10;99.90;;;;;;4960525;28;20963;-59
2021/08/29 07:57:23;;;;;;;9.53;8.60;;;18.60;99.90;;;;;;4958851;28;20524;-58
2021/08/29 07:59:48;;;;;;;13.40;9.50;;;18.80;99.90;;;;;;4960671;28;20229;-58
2021/08/29 08:02:16;;;;;;;9.57;8.63;;;19.20;99.90;;;;;;4958065;28;20189;-58
2021/08/29 08:04:42;;;;;;;8.83;7.93;;;19.10;99.90;;;;;;4953775;28;20184;-58
2021/08/29 08:07:07;;;;;;;12.47;8.77;;;19.30;99.90;;;;;;4960332;28;20448;-59
2021/08/29 08:09:33;;;;;;;8.10;7.30;;;19.60;99.90;;;;;;4953182;28;21324;-56
2021/08/29 08:11:59;;;;;;;9.10;8.20;;;19.90;99.90;;;;;;4958566;28;20656;-60
2021/08/29 08:14:24;;;;;;;9.00;8.10;;;20.10;99.90;;;;;;4959610;28;20192;-59
2021/08/29 08:16:50;;;;;;;10.70;9.50;;;20.00;99.90;;;;;;4960748;28;20299;-57
2021/08/29 08:19:15;;;;;;;10.30;9.20;;;19.90;99.90;;;;;;4958697;28;20622;-59
2021/08/29 08:21:41;;;;;;;11.00;9.80;;;19.60;99.90;;;;;;4955328;28;20254;-57
2021/08/29 08:24:06;;;;;;;9.70;8.70;;;19.50;99.90;;;;;;4960623;28;20652;-58
2021/08/29 08:26:32;;;;;;;9.27;8.37;;;19.50;99.90;;;;;;4955597;28;20221;-54
2021/08/29 08:28:57;;;;;;;10.07;9.07;;;19.50;99.90;;;;;;4959035;28;20203;-57
2021/08/29 08:31:23;;;;;;;10.10;8.90;;;19.60;99.90;;;;;;4958996;28;20188;-59
2021/08/29 08:33:49;;;;;;;10.20;9.20;;;19.50;99.90;;;;;;4959806;28;20208;-58
2021/08/29 08:36:15;;;;;;;15.10;9.77;;;19.50;99.90;;;;;;4958011;28;20279;-54
2021/08/29 08:38:40;;;;;;;10.67;9.57;;;19.50;99.90;;;;;;4955960;28;20506;-58
2021/08/29 08:41:06;;;;;;;11.57;9.70;;;19.70;99.90;;;;;;4962838;28;20544;-57
2021/08/29 08:43:32;;;;;;;10.57;9.50;;;19.70;99.90;;;;;;4967815;28;20204;-57
2021/08/29 08:45:58;;;;;;;10.33;9.30;;;19.90;99.90;;;;;;4969282;28;20425;-54
2021/08/29 08:48:26;;;;;;;11.73;9.83;;;20.10;99.90;;;;;;4963206;28;20264;-58
2021/08/29 08:50:52;;;;;;;11.90;10.30;;;20.10;99.90;;;;;;4966041;28;20188;-56
2021/08/29 08:53:23;;;;;;;11.17;9.97;;;19.90;99.90;;;;;;4964557;28;22260;-57
2021/08/29 08:55:51;;;;;;;10.30;9.30;;;20.20;99.90;;;;;;4966202;28;20491;-57
2021/08/29 08:58:17;;;;;;;9.17;8.20;;;20.40;99.90;;;;;;4965812;28;20482;-58
2021/08/29 09:00:44;;;;;;;11.57;9.90;;;21.00;99.90;;;;;;4964284;28;20470;-59
2021/08/29 09:03:10;;;;;;;9.77;8.87;;;21.50;99.90;;;;;;4966207;28;20445;-59
2021/08/29 09:05:39;;;;;;;9.53;8.73;;;22.10;99.90;;;;;;4969458;28;20442;-52
2021/08/29 09:08:06;;;;;;;9.73;8.83;;;22.90;99.90;;;;;;4962676;28;20192;-56
2021/08/29 09:10:32;;;;;;;9.43;8.53;;;23.20;98.30;;;;;;4966215;28;20432;-59
2021/08/29 09:13:03;;;;;;;10.60;9.67;;;23.40;98.70;;;;;;4966098;28;20483;-56
2021/08/29 09:15:30;;;;;;;9.37;8.57;;;23.80;97.30;;;;;;4966813;28;20447;-57
2021/08/29 09:17:55;;;;;;;9.93;9.07;;;23.90;94.50;;;;;;4966801;28;20432;-57
2021/08/29 09:20:28;;;;;;;9.10;8.30;;;24.10;94.70;;;;;;4965917;28;20422;-55
2021/08/29 09:22:59;;;;;;;10.00;9.10;;;24.30;94.80;;;;;;4962083;28;20178;-57
2021/08/29 09:25:28;;;;;;;9.27;8.37;;;24.60;91.70;;;;;;4969127;28;20428;-58
2021/08/29 09:27:57;;;;;;;9.70;8.90;;;24.70;92.00;;;;;;4963494;28;20997;-59
2021/08/29 09:30:24;;;;;;;9.33;8.53;;;24.70;92.20;;;;;;4968600;28;20448;-57
2021/08/29 09:33:01;;;;;;;9.97;9.17;;;24.50;93.60;;;;;;4964389;28;20504;-55
2021/08/29 09:35:30;;;;;;;10.20;9.30;;;24.90;89.70;;;;;;4970618;28;20432;-57
2021/08/29 09:37:56;;;;;;;9.70;8.90;;;24.90;87.50;;;;;;4969619;28;20455;-58
2021/08/29 09:40:26;;;;;;;8.63;7.93;;;25.30;88.40;;;;;;4961945;28;20801;-58
2021/08/29 09:42:53;;;;;;;8.50;7.80;;;25.00;87.90;;;;;;4961368;28;20460;-59
2021/08/29 09:45:26;;;;;;;9.40;8.60;;;24.80;87.20;;;;;;4963315;28;20772;-59
2021/08/29 09:47:56;;;;;;;9.17;8.37;;;24.60;90.00;;;;;;4961538;28;21196;-55
2021/08/29 09:50:23;;;;;;;9.20;8.40;;;24.40;91.10;;;;;;4961249;28;20437;-57
2021/08/29 09:52:58;;;;;;;7.77;7.17;;;25.10;90.50;;;;;;4963256;28;20461;-59
2021/08/29 09:55:39;;;;;;;8.80;8.10;;;25.70;90.20;;;;;;4969485;28;20448;-58
2021/08/29 09:58:24;;;;;;;9.17;8.47;;;26.00;86.70;;;;;;4971493;28;20438;-60
2021/08/29 10:01:09;;;;;;;9.50;8.70;;;25.70;85.10;;;;;;4969277;28;20498;-57
2021/08/29 10:03:36;;;;;;;10.07;9.33;;;25.70;84.10;;;;;;4959479;28;21242;-56
2021/08/29 10:06:22;;;;;;;29.20;26.67;;;25.60;87.80;;;;;;4981888;28;20795;-54
2021/08/29 10:08:55;;;;;;;10.40;9.60;;;26.50;84.10;;;;;;4969408;28;20781;-56
2021/08/29 10:11:23;;;;;;;67.33;61.37;;;27.30;77.40;;;;;;4968661;28;20435;-56
2021/08/29 10:13:49;;;;;;;11.03;10.23;;;27.60;77.10;;;;;;4970440;28;22315;-56
2021/08/29 10:16:16;;;;;;;9.60;8.90;;;27.60;75.50;;;;;;4969875;28;20556;-58
2021/08/29 10:18:45;;;;;;;10.00;9.27;;;27.30;74.30;;;;;;4969638;28;20453;-57
2021/08/29 10:21:13;;;;;;;9.57;8.97;;;26.80;75.50;;;;;;4968108;28;20485;-58
2021/08/29 10:23:41;;;;;;;9.63;8.93;;;26.00;76.90;;;;;;4967932;28;20440;-59
2021/08/29 10:26:10;;;;;;;9.90;9.10;;;25.30;77.10;;;;;;4967590;28;20503;-59
2021/08/29 10:28:46;;;;;;;9.60;8.90;;;25.10;78.60;;;;;;4966252;28;20944;-58
2021/08/29 10:31:15;;;;;;;8.57;7.97;;;25.10;82.00;;;;;;4970760;28;20472;-59
2021/08/29 10:33:47;;;;;;;9.10;8.50;;;25.60;84.30;;;;;;4965210;28;20466;-58
2021/08/29 10:36:17;;;;;;;9.30;8.70;;;26.20;77.60;;;;;;4965920;28;20444;-58
2021/08/29 10:38:45;;;;;;;9.30;8.70;;;26.70;78.80;;;;;;4959788;28;20494;-60
2021/08/29 10:41:11;;;;;;;9.20;8.60;;;27.30;75.60;;;;;;4970219;28;20436;-59
2021/08/29 10:43:39;;;;;;;9.70;9.10;;;27.60;73.20;;;;;;4967068;28;21133;-60
2021/08/29 10:46:09;;;;;;;9.10;8.40;;;28.20;70.70;;;;;;4969046;28;20439;-59
2021/08/29 10:48:39;;;;;;;9.10;8.50;;;28.00;69.80;;;;;;4969703;28;20455;-57
2021/08/29 10:51:06;;;;;;;9.13;8.53;;;27.20;68.60;;;;;;4974466;28;20419;-56
2021/08/29 10:53:42;;;;;;;8.50;7.90;;;26.40;71.70;;;;;;4966694;28;20481;-55
2021/08/29 10:56:17;;;;;;;9.10;8.40;;;25.60;72.00;;;;;;4976646;28;20469;-58
2021/08/29 10:58:46;;;;;;;9.33;8.63;;;24.90;72.10;;;;;;4960443;28;20804;-54
2021/08/29 11:01:44;;;;;;;8.97;8.27;;;24.10;78.60;;;;;;4955563;28;20473;-57
2021/08/29 11:04:21;;;;;;;9.93;9.20;;;23.70;81.50;;;;;;4956647;28;20472;-58
2021/08/29 11:06:49;;;;;;;10.20;9.40;;;23.70;84.30;;;;;;4954834;28;20522;-57
2021/08/29 11:09:36;;;;;;;8.47;7.87;;;24.70;82.10;;;;;;4964636;28;20994;-58
2021/08/29 11:12:03;;;;;;;7.80;7.30;;;25.50;82.30;;;;;;4953358;28;20419;-57
2021/08/29 11:14:37;;;;;;;7.80;7.30;;;26.90;78.70;;;;;;4956818;28;20437;-58
2021/08/29 11:17:19;;;;;;;8.27;7.77;;;28.30;71.10;;;;;;4957550;28;20433;-56
2021/08/29 11:19:47;;;;;;;7.93;7.43;;;29.40;59.70;;;;;;4960176;28;20459;-58
2021/08/29 11:22:17;;;;;;;6.40;6.00;;;29.80;56.70;;;;;;4954778;28;20462;-57
2021/08/29 11:24:53;;;;;;;6.80;6.30;;;29.40;55.60;;;;;;4969720;28;20419;-58
2021/08/29 11:27:49;;;;;;;7.40;6.90;;;29.00;55.10;;;;;;4968222;28;20428;-55
2021/08/29 11:30:19;;;;;;;7.00;6.50;;;28.60;56.90;;;;;;4971482;28;20431;-57
2021/08/29 11:32:58;;;;;;;7.00;6.50;;;28.90;59.00;;;;;;4969226;28;21376;-56
2021/08/29 11:35:32;;;;;;;7.10;6.60;;;29.30;57.70;;;;;;4978867;28;20427;-56
2021/08/29 11:38:31;;;;;;;6.57;6.17;;;29.40;56.50;;;;;;4973349;28;21156;-51
2021/08/29 11:40:59;;;;;;;6.77;6.27;;;30.10;55.80;;;;;;4970883;28;20436;-57
2021/08/29 11:43:27;;;;;;;6.60;6.20;;;30.50;52.50;;;;;;4973315;28;20463;-55
2021/08/29 11:46:20;;;;;;;7.23;6.73;;;30.90;51.10;;;;;;4971943;28;20440;-55
2021/08/29 11:48:50;;;;;;;6.93;6.43;;;31.20;51.00;;;;;;4976324;28;20448;-57
2021/08/29 11:51:27;;;;;;;7.37;6.73;;;30.10;51.10;;;;;;4983673;28;20422;-58
2021/08/29 11:53:52;;;;;;;7.60;7.10;;;29.20;54.60;;;;;;4959063;28;20545;-57
2021/08/29 11:56:21;;;;;;;7.10;6.60;;;27.90;57.00;;;;;;4968436;28;20531;-57
2021/08/29 11:58:48;;;;;;;6.30;5.90;;;27.20;58.50;;;;;;4965899;28;20200;-57
2021/08/29 12:01:15;;;;;;;7.00;6.50;;;27.20;60.70;;;;;;4968893;28;20468;-56
2021/08/29 12:03:41;;;;;;;6.10;5.70;;;27.60;56.40;;;;;;4967482;28;20412;-57
2021/08/29 12:06:21;;;;;;;5.97;5.57;;;28.60;56.10;;;;;;4971670;28;20498;-58
2021/08/29 12:09:09;;;;;;;6.60;6.20;;;29.00;56.90;;;;;;4973145;28;20434;-58
2021/08/29 12:11:38;;;;;;;6.10;5.70;;;30.10;53.50;;;;;;4965576;28;20750;-58
2021/08/29 12:14:16;;;;;;;5.53;5.23;;;30.80;50.70;;;;;;4969183;28;21159;-56
2021/08/29 12:16:47;;;;;;;6.33;5.87;;;31.00;47.80;;;;;;4966091;28;20492;-57
2021/08/29 12:19:14;;;;;;;5.50;5.20;;;31.30;48.30;;;;;;4967778;28;20424;-57
2021/08/29 12:21:43;;;;;;;5.80;5.50;;;30.90;50.30;;;;;;4969021;28;20420;-55
2021/08/29 12:24:13;;;;;;;6.03;5.67;;;31.30;47.70;;;;;;4965040;28;21102;-55
2021/08/29 12:26:39;;;;;;;5.77;5.37;;;31.30;48.80;;;;;;4964405;28;20432;-57
2021/08/29 12:29:06;;;;;;;6.60;6.20;;;31.80;47.30;;;;;;4956742;28;20431;-56
2021/08/29 12:31:40;;;;;;;5.97;5.63;;;31.10;47.00;;;;;;4969383;28;20421;-57
2021/08/29 12:34:07;;;;;;;6.40;5.73;;;30.50;47.80;;;;;;4969267;28;20495;-56
2021/08/29 12:36:36;;;;;;;5.37;5.07;;;29.70;50.70;;;;;;4969491;28;20782;-57
2021/08/29 12:39:09;;;;;;;5.80;5.40;;;28.80;51.90;;;;;;4969542;28;20422;-56
2021/08/29 12:41:34;;;;;;;5.50;5.20;;;28.30;53.50;;;;;;4969367;28;20759;-55